createdAt,value
2018-11-29T00:03:06.476Z,3.67
2018-11-29T00:06:18.988Z,5.80
2018-11-29T00:09:19.470Z,7.42
2018-11-29T00:12:30.191Z,6.10
2018-11-29T00:15:40.909Z,7.12
2018-11-29T00:18:52.138Z,10.25
2018-11-29T00:22:02.859Z,11.93
2018-11-29T00:25:13.579Z,10.25
2018-11-29T00:28:25.584Z,10.93
2018-11-29T00:31:36.304Z,6.35
2018-11-29T00:34:46.761Z,11.75
2018-11-29T00:37:43.986Z,21.00
2018-11-29T00:40:54.637Z,14.75
2018-11-29T00:44:06.384Z,13.28
2018-11-29T00:47:18.124Z,14.38
2018-11-29T00:50:17.327Z,13.58
2018-11-29T00:53:18.315Z,13.38
2018-11-29T00:56:29.036Z,11.08
2018-11-29T00:59:39.757Z,13.48
2018-11-29T01:02:50.988Z,14.07
2018-11-29T01:05:51.723Z,11.90
2018-11-29T01:08:52.457Z,9.98
2018-11-29T01:11:53.205Z,12.23
2018-11-29T01:14:54.187Z,13.58
2018-11-29T01:17:54.924Z,11.88
2018-11-29T01:20:55.921Z,9.20
2018-11-29T01:24:06.634Z,9.08
2018-11-29T01:27:18.382Z,10.78
2018-11-29T01:30:18.857Z,7.08
2018-11-29T01:33:19.851Z,5.70
2018-11-29T01:36:30.583Z,8.70
2018-11-29T01:39:41.289Z,7.97
2018-11-29T01:42:42.539Z,5.97
2018-11-29T01:45:47.115Z,9.20
2018-11-29T01:48:58.346Z,7.72
2018-11-29T01:52:09.066Z,6.53
2018-11-29T01:55:12.621Z,9.03
2018-11-29T01:58:14.632Z,9.18
2018-11-29T02:01:15.113Z,5.45
2018-11-29T02:04:15.856Z,9.73
2018-11-29T02:07:16.841Z,5.03
2018-11-29T02:10:19.630Z,10.80
2018-11-29T02:13:30.606Z,8.88
2018-11-29T02:16:44.395Z,7.30
2018-11-29T02:19:45.641Z,6.72
2018-11-29T02:22:46.637Z,5.15
2018-11-29T02:25:47.373Z,9.55
2018-11-29T02:28:49.134Z,9.30
2018-11-29T02:31:49.865Z,7.97
2018-11-29T02:34:50.602Z,6.97
2018-11-29T02:37:51.852Z,7.22
2018-11-29T02:40:52.585Z,7.12
2018-11-29T02:44:04.331Z,4.80
2018-11-29T02:47:18.123Z,5.22
2018-11-29T02:50:18.857Z,6.55
2018-11-29T02:53:19.851Z,7.55
2018-11-29T02:56:20.586Z,6.00
2018-11-29T02:59:21.321Z,5.53
2018-11-29T03:02:32.300Z,9.40
2018-11-29T03:05:43.272Z,4.40
2018-11-29T03:08:44.013Z,5.35
2018-11-29T03:11:44.745Z,8.53
2018-11-29T03:14:45.740Z,4.30
2018-11-29T03:17:46.221Z,6.87
2018-11-29T03:20:57.193Z,5.30
2018-11-29T03:24:07.913Z,5.33
2018-11-29T03:27:18.890Z,2.98
2018-11-29T03:30:30.124Z,3.55
2018-11-29T03:33:41.100Z,12.20
2018-11-29T03:36:51.566Z,10.30
2018-11-29T03:40:02.290Z,5.40
2018-11-29T03:43:13.516Z,5.90
2018-11-29T03:46:14.048Z,5.90
2018-11-29T03:49:15.505Z,6.80
2018-11-29T03:52:19.816Z,4.70
2018-11-29T03:55:20.297Z,7.15
2018-11-29T03:58:31.272Z,5.90
2018-11-29T04:01:41.994Z,5.35
2018-11-29T04:04:52.971Z,4.67
2018-11-29T04:08:06.512Z,8.35
2018-11-29T04:11:06.986Z,10.10
2018-11-29T04:14:17.707Z,6.83
2018-11-29T04:17:19.221Z,5.17
2018-11-29T04:20:16.106Z,5.60
2018-11-29T04:23:16.585Z,8.83
2018-11-29T04:26:27.564Z,5.60
2018-11-29T04:29:28.041Z,5.35
2018-11-29T04:32:28.521Z,8.90
2018-11-29T04:35:29.000Z,5.53
2018-11-29T04:38:29.737Z,4.05
2018-11-29T04:41:41.226Z,8.33
2018-11-29T04:44:52.204Z,5.12
2018-11-29T04:47:58.376Z,8.08
2018-11-29T04:51:09.295Z,8.85
2018-11-29T04:54:07.476Z,6.87
2018-11-29T04:57:07.945Z,8.35
2018-11-29T05:00:08.427Z,8.53
2018-11-29T05:03:08.940Z,6.37
2018-11-29T05:06:19.884Z,6.22
2018-11-29T05:09:31.115Z,11.30
2018-11-29T05:12:43.113Z,5.35
2018-11-29T05:15:54.089Z,7.20
2018-11-29T05:19:08.654Z,7.28
2018-11-29T05:22:19.368Z,7.22
2018-11-29T05:25:22.666Z,8.60
2018-11-29T05:28:23.402Z,7.47
2018-11-29T05:31:34.125Z,4.90
2018-11-29T05:34:45.100Z,5.72
2018-11-29T05:37:45.837Z,8.40
2018-11-29T05:40:49.648Z,3.35
2018-11-29T05:43:50.120Z,9.88
2018-11-29T05:46:50.605Z,7.40
2018-11-29T05:49:51.336Z,5.58
2018-11-29T05:52:51.821Z,9.73
2018-11-29T05:55:52.563Z,3.98
2018-11-29T05:59:03.273Z,7.62
2018-11-29T06:02:08.106Z,6.45
2018-11-29T06:05:08.843Z,4.75
2018-11-29T06:08:20.844Z,6.42
2018-11-29T06:11:31.819Z,7.20
2018-11-29T06:14:42.794Z,6.08
2018-11-29T06:17:53.515Z,3.10
2018-11-29T06:21:04.232Z,6.00
2018-11-29T06:24:16.493Z,10.23
2018-11-29T06:27:27.210Z,8.78
2018-11-29T06:30:32.815Z,10.30
2018-11-29T06:33:43.530Z,5.78
2018-11-29T06:36:54.506Z,5.50
2018-11-29T06:40:05.484Z,7.33
2018-11-29T06:43:16.461Z,5.47
2018-11-29T06:46:29.742Z,9.08
2018-11-29T06:49:42.761Z,5.37
2018-11-29T06:52:53.484Z,4.70
2018-11-29T06:56:04.458Z,9.45
2018-11-29T06:59:15.175Z,4.75
2018-11-29T07:02:26.410Z,13.03
2018-11-29T07:05:37.132Z,6.08
2018-11-29T07:08:38.128Z,6.85
2018-11-29T07:11:38.857Z,4.45
2018-11-29T07:14:50.094Z,6.90
2018-11-29T07:18:01.833Z,6.80
2018-11-29T07:21:13.067Z,4.65
2018-11-29T07:24:13.549Z,7.97
2018-11-29T07:27:14.028Z,5.90
2018-11-29T07:30:14.764Z,6.12
2018-11-29T07:33:16.011Z,6.45
2018-11-29T07:36:26.986Z,3.47
2018-11-29T07:39:38.473Z,4.15
2018-11-29T07:42:49.192Z,6.78
2018-11-29T07:46:00.178Z,4.12
2018-11-29T07:49:10.895Z,5.17
2018-11-29T07:52:11.885Z,5.47
2018-11-29T07:55:13.129Z,5.62
2018-11-29T07:58:14.888Z,6.83
2018-11-29T08:01:15.627Z,8.65
2018-11-29T08:04:26.600Z,7.55
2018-11-29T08:07:37.580Z,4.25
2018-11-29T08:10:48.044Z,8.08
2018-11-29T08:13:49.033Z,6.17
2018-11-29T08:16:49.769Z,10.20
2018-11-29T08:20:00.507Z,4.08
2018-11-29T08:23:11.467Z,6.03
2018-11-29T08:26:11.946Z,3.75
2018-11-29T08:29:12.683Z,8.28
2018-11-29T08:32:25.454Z,6.45
2018-11-29T08:35:36.174Z,9.03
2018-11-29T08:38:47.161Z,5.65
2018-11-29T08:41:58.130Z,4.42
2018-11-29T08:45:09.868Z,3.50
2018-11-29T08:48:21.617Z,6.55
2018-11-29T08:51:22.602Z,4.45
2018-11-29T08:54:23.339Z,8.70
2018-11-29T08:57:25.404Z,4.83
2018-11-29T09:00:26.092Z,2.90
2018-11-29T09:03:26.830Z,5.33
2018-11-29T09:10:06.188Z,6.75
2018-11-29T09:13:17.419Z,3.35
2018-11-29T09:16:23.043Z,10.15
2018-11-29T09:19:39.122Z,2.77
2018-11-29T09:22:58.041Z,4.50
2018-11-29T09:26:03.897Z,3.47
2018-11-29T09:29:08.989Z,7.62
2018-11-29T09:32:15.593Z,5.17
2018-11-29T09:35:27.094Z,4.60
2018-11-29T09:38:41.965Z,4.28
2018-11-29T09:41:47.271Z,2.92
2018-11-29T09:44:59.252Z,3.27
2018-11-29T09:48:14.827Z,4.12
2018-11-29T09:51:27.179Z,4.95
2018-11-29T09:54:40.624Z,4.33
2018-11-29T09:57:43.924Z,3.40
2018-11-29T10:00:56.944Z,2.67
2018-11-29T10:03:58.708Z,3.95
2018-11-29T10:07:02.507Z,2.85
2018-11-29T10:10:06.828Z,5.50
2018-11-29T10:13:09.498Z,4.97
2018-11-29T10:16:13.166Z,4.72
2018-11-29T10:19:17.228Z,4.60
2018-11-29T10:22:29.482Z,3.37
2018-11-29T10:25:28.208Z,3.17
2018-11-29T10:28:32.488Z,2.65
2018-11-29T10:31:33.484Z,3.02
2018-11-29T10:34:33.967Z,1.95
2018-11-29T10:37:35.725Z,2.90
2018-11-29T10:40:37.994Z,3.87
2018-11-29T10:43:48.714Z,3.15
2018-11-29T10:46:59.431Z,3.10
2018-11-29T10:50:10.152Z,5.35
2018-11-29T10:53:21.132Z,2.15
2018-11-29T10:56:17.904Z,2.50
2018-11-29T10:59:21.577Z,2.37
2018-11-29T11:02:54.567Z,4.05
2018-11-29T11:06:05.289Z,1.45
2018-11-29T11:09:06.286Z,4.03
2018-11-29T11:12:07.019Z,1.67
2018-11-29T11:15:07.502Z,2.20
2018-11-29T11:18:08.236Z,6.35
2018-11-29T11:21:19.209Z,3.27
2018-11-29T11:24:29.928Z,1.40
2018-11-29T11:27:30.409Z,3.47
2018-11-29T11:30:27.051Z,3.05
2018-11-29T11:33:27.785Z,3.60
2018-11-29T11:36:28.522Z,2.55
2018-11-29T11:39:29.256Z,2.25
2018-11-29T11:42:30.507Z,2.40
2018-11-29T11:45:31.243Z,2.70
2018-11-29T11:48:33.003Z,3.15
2018-11-29T11:51:33.738Z,2.87
2018-11-29T11:54:44.461Z,6.30
2018-11-29T11:57:52.435Z,2.87
2018-11-29T12:01:03.085Z,2.50
2018-11-29T12:04:04.076Z,1.55
2018-11-29T12:07:17.099Z,2.90
2018-11-29T12:10:24.178Z,5.05
2018-11-29T12:13:31.152Z,3.05
2018-11-29T12:16:42.349Z,1.75
2018-11-29T12:19:53.834Z,1.87
2018-11-29T12:23:04.552Z,4.30
2018-11-29T12:26:16.556Z,5.47
2018-11-29T12:29:17.803Z,13.08
2018-11-29T12:32:19.571Z,5.12
2018-11-29T12:35:20.296Z,3.22
2018-11-29T12:38:21.291Z,2.62
2018-11-29T12:41:32.269Z,1.15
2018-11-29T12:44:33.771Z,6.65
2018-11-29T12:47:44.747Z,4.62
2018-11-29T12:50:56.490Z,3.52
2018-11-29T12:54:07.212Z,3.98
2018-11-29T12:57:17.932Z,4.78
2018-11-29T13:00:10.735Z,3.27
2018-11-29T13:03:32.458Z,1.72
2018-11-29T13:06:32.938Z,1.32
2018-11-29T13:09:30.348Z,3.25
2018-11-29T13:12:41.325Z,4.03
2018-11-29T13:15:55.112Z,6.67
2018-11-29T13:19:05.831Z,4.55
2018-11-29T13:22:17.834Z,3.20
2018-11-29T13:25:22.162Z,2.52
2018-11-29T13:28:26.473Z,3.45
2018-11-29T13:31:37.466Z,4.95
2018-11-29T13:34:48.682Z,2.45
2018-11-29T13:37:49.675Z,6.12
2018-11-29T13:40:51.701Z,3.05
2018-11-29T13:44:02.664Z,4.03
2018-11-29T13:47:13.721Z,4.83
2018-11-29T13:50:15.657Z,3.77
2018-11-29T13:53:17.194Z,2.30
2018-11-29T13:56:27.629Z,3.60
2018-11-29T13:59:38.602Z,2.80
2018-11-29T14:02:40.872Z,4.28
2018-11-29T14:05:41.612Z,6.83
2018-11-29T14:08:42.344Z,8.53
2018-11-29T14:11:43.085Z,4.92
2018-11-29T14:14:38.155Z,7.12
2018-11-29T14:17:39.433Z,5.85
2018-11-29T14:20:50.408Z,8.68
2018-11-29T14:24:01.385Z,6.03
2018-11-29T14:27:02.414Z,3.25
2018-11-29T14:29:55.182Z,3.90
2018-11-29T14:32:56.937Z,3.33
2018-11-29T14:35:58.955Z,8.48
2018-11-29T14:38:59.438Z,10.20
2018-11-29T14:42:01.965Z,5.55
2018-11-29T14:45:12.681Z,3.20
2018-11-29T14:48:23.657Z,4.90
2018-11-29T14:51:24.137Z,3.42
2018-11-29T14:54:24.875Z,3.05
2018-11-29T14:57:26.395Z,6.00
2018-11-29T15:00:28.141Z,4.80
2018-11-29T15:03:29.129Z,4.78
2018-11-29T15:06:39.850Z,3.58
2018-11-29T15:09:50.828Z,7.50
2018-11-29T15:12:53.354Z,5.12
2018-11-29T15:16:04.328Z,2.87
2018-11-29T15:19:15.305Z,3.83
2018-11-29T15:22:26.281Z,11.05
2018-11-29T15:25:27.837Z,10.28
2018-11-29T15:28:28.521Z,5.85
2018-11-29T15:31:42.060Z,4.42
2018-11-29T15:34:53.289Z,7.97
2018-11-29T15:38:05.801Z,4.60
2018-11-29T15:41:18.208Z,3.80
2018-11-29T15:44:27.244Z,6.85
2018-11-29T15:47:27.977Z,4.45
2018-11-29T15:50:28.713Z,5.90
2018-11-29T15:53:41.747Z,4.97
2018-11-29T15:56:42.230Z,4.37
2018-11-29T15:59:43.208Z,3.85
2018-11-29T16:02:43.946Z,5.47
2018-11-29T16:05:44.683Z,8.43
2018-11-29T16:08:46.951Z,5.00
2018-11-29T16:11:47.948Z,3.83
2018-11-29T16:14:48.681Z,3.98
2018-11-29T16:17:49.160Z,5.05
2018-11-29T16:20:54.036Z,5.33
2018-11-29T16:23:55.752Z,5.33
2018-11-29T16:26:57.530Z,4.20
2018-11-29T16:29:57.993Z,3.25
2018-11-29T16:32:59.029Z,7.12
2018-11-29T16:35:59.464Z,6.20
2018-11-29T16:39:00.205Z,4.53
2018-11-29T16:42:01.191Z,7.37
2018-11-29T16:45:11.915Z,3.87
2018-11-29T16:48:22.901Z,5.00
2018-11-29T16:51:33.607Z,4.28
2018-11-29T16:54:44.334Z,4.50
2018-11-29T16:57:45.321Z,2.47
2018-11-29T17:00:46.607Z,4.85
2018-11-29T17:03:57.544Z,9.18
2018-11-29T17:06:59.309Z,4.62
2018-11-29T17:10:00.302Z,5.03
2018-11-29T17:13:12.039Z,5.47
2018-11-29T17:16:23.017Z,5.05
2018-11-29T17:19:23.499Z,11.63
2018-11-29T17:22:25.003Z,5.05
2018-11-29T17:25:26.510Z,5.53
2018-11-29T17:28:37.479Z,3.55
2018-11-29T17:31:48.715Z,10.85
2018-11-29T17:34:49.448Z,3.80
2018-11-29T17:37:50.186Z,5.95
2018-11-29T17:40:51.943Z,5.75
2018-11-29T17:44:03.699Z,4.72
2018-11-29T17:47:16.969Z,6.15
2018-11-29T17:50:17.708Z,8.38
2018-11-29T17:53:18.441Z,7.70
2018-11-29T17:56:18.922Z,10.65
2018-11-29T17:59:33.737Z,4.40
2018-11-29T18:02:47.279Z,3.72
2018-11-29T18:05:58.247Z,4.28
2018-11-29T18:08:58.990Z,4.83
2018-11-29T18:11:59.728Z,4.12
2018-11-29T18:15:03.530Z,5.97
2018-11-29T18:18:06.062Z,5.60
2018-11-29T18:21:19.101Z,4.08
2018-11-29T18:24:31.848Z,10.75
2018-11-29T18:27:40.266Z,4.00
2018-11-29T18:30:41.770Z,4.37
2018-11-29T18:33:52.487Z,8.53
2018-11-29T18:37:04.756Z,6.10
2018-11-29T18:40:15.467Z,7.55
2018-11-29T18:43:26.206Z,3.80
2018-11-29T18:46:37.418Z,5.37
2018-11-29T18:49:48.649Z,4.50
2018-11-29T18:52:59.372Z,6.97
2018-11-29T18:56:10.089Z,6.92
2018-11-29T18:59:10.828Z,7.92
2018-11-29T19:03:10.185Z,5.05
2018-11-29T19:06:21.160Z,8.90
2018-11-29T19:09:32.138Z,4.92
2018-11-29T19:12:33.441Z,5.80
2018-11-29T19:15:30.023Z,6.08
2018-11-29T19:18:30.505Z,7.85
2018-11-29T19:21:30.987Z,5.55
2018-11-29T19:24:41.447Z,5.45
2018-11-29T19:27:54.218Z,10.50
2018-11-29T19:30:53.419Z,4.85
2018-11-29T19:34:04.141Z,7.83
2018-11-29T19:37:04.617Z,3.92
2018-11-29T19:40:02.681Z,7.00
2018-11-29T19:43:13.771Z,5.42
2018-11-29T19:46:24.748Z,5.12
2018-11-29T19:49:35.723Z,6.60
2018-11-29T19:52:46.701Z,11.65
2018-11-29T19:55:49.497Z,5.53
2018-11-29T19:58:51.240Z,5.45
2018-11-29T20:02:02.217Z,7.37
2018-11-29T20:05:13.191Z,8.88
2018-11-29T20:08:24.179Z,8.20
2018-11-29T20:11:27.723Z,6.20
2018-11-29T20:14:38.954Z,4.55
2018-11-29T20:17:50.956Z,8.55
2018-11-29T20:20:52.202Z,3.67
2018-11-29T20:23:52.941Z,9.28
2018-11-29T20:26:53.928Z,5.10
2018-11-29T20:29:55.443Z,5.22
2018-11-29T20:32:56.172Z,3.90
2018-11-29T20:35:57.161Z,4.90
2018-11-29T20:39:07.626Z,8.08
2018-11-29T20:42:19.371Z,5.28
2018-11-29T20:45:30.602Z,7.10
2018-11-29T20:48:42.862Z,9.93
2018-11-29T20:51:43.340Z,6.33
2018-11-29T20:54:44.073Z,5.87
2018-11-29T20:57:44.810Z,9.63
2018-11-29T21:00:46.829Z,5.90
2018-11-29T21:03:58.827Z,6.03
2018-11-29T21:07:09.548Z,5.47
2018-11-29T21:10:20.265Z,3.55
2018-11-29T21:13:26.170Z,13.00
2018-11-29T21:16:37.610Z,11.45
2018-11-29T21:19:48.587Z,5.67
2018-11-29T21:22:49.322Z,9.55
2018-11-29T21:25:53.643Z,8.88
2018-11-29T21:29:04.887Z,15.70
2018-11-29T21:32:15.595Z,18.27
2018-11-29T21:35:16.334Z,10.53
2018-11-29T21:38:17.841Z,10.50
2018-11-29T21:41:28.810Z,7.97
2018-11-29T21:44:40.039Z,5.85
2018-11-29T21:47:40.520Z,8.80
2018-11-29T21:50:41.010Z,10.93
2018-11-29T21:53:41.740Z,7.50
2018-11-29T21:56:42.732Z,12.63
2018-11-29T21:59:44.238Z,13.35
2018-11-29T22:02:45.227Z,16.90
2018-11-29T22:05:45.963Z,12.23
2018-11-29T22:08:46.698Z,13.68
2018-11-29T22:11:57.714Z,10.98
2018-11-29T22:15:08.392Z,11.35
2018-11-29T22:18:19.373Z,10.50
2018-11-29T22:21:21.384Z,7.87
2018-11-29T22:24:22.379Z,8.05
2018-11-29T22:27:26.701Z,6.45
2018-11-29T22:30:41.377Z,11.78
2018-11-29T22:33:50.954Z,6.85
2018-11-29T22:36:44.019Z,5.90
2018-11-29T22:39:44.744Z,6.55
2018-11-29T22:42:55.472Z,7.12
2018-11-29T22:46:06.192Z,8.50
2018-11-29T22:49:07.179Z,5.03
2018-11-29T22:52:07.911Z,4.33
2018-11-29T22:55:08.403Z,6.72
2018-11-29T22:58:08.875Z,6.40
2018-11-29T23:01:12.428Z,12.53
2018-11-29T23:04:14.441Z,9.28
2018-11-29T23:07:11.341Z,8.03
2018-11-29T23:10:13.096Z,4.83
2018-11-29T23:13:24.074Z,20.27
2018-11-29T23:16:35.816Z,11.73
2018-11-29T23:19:47.050Z,9.85
2018-11-29T23:22:57.770Z,11.93
2018-11-29T23:26:08.744Z,9.95
2018-11-29T23:29:20.236Z,13.10
2018-11-29T23:32:21.225Z,12.00
2018-11-29T23:35:21.706Z,14.10
2018-11-29T23:38:32.436Z,12.95
2018-11-29T23:41:43.146Z,16.97
2018-11-29T23:44:43.883Z,10.23
2018-11-29T23:47:42.709Z,8.33
2018-11-29T23:50:54.828Z,20.85
2018-11-29T23:53:55.821Z,27.60
2018-11-29T23:56:56.299Z,81.60
2018-11-29T23:59:59.084Z,49.60
